• Join FlightAware (Why Join?)
  • Login
  • US Flag 
03:16PM EDT


 

Airport Tracker/Info


-or-


 

Live Flight TrackerFlight Track Log ✈ N111KC ✈ 14-Jan-2014 ✈ KCVC - KECP

Flight Track Log - Related Links

Times and Time Zones

All times are in EST time to prevent confusion due to time zone crossing. See the N111KC flight status page for this flight to view local times or setup timezone preferences in your user account.

Time Position Orientation Groundspeed Altitude Reporting Facility
EST Latitude Longitude Course Direction KTS MPH feet Rate Location/Type
11:59AM 33.5167 -83.9167 180° South 191 220 5,100  Level Atlanta TRACON
12:00PM 33.4667 -83.9167 180° South 174 200 6,500 960 Climbing Atlanta TRACON
12:01PM 33.4167 -83.9000 164° South 193 222 7,000 240 Climbing Atlanta TRACON
12:02PM 33.3667 -83.9167 196° South 213 245 7,000 -60 Level Atlanta TRACON
12:03PM 33.3779 -84.0046 206° Southwest  Level Estimated
12:03PM 33.3167 -83.9500 209° Southwest 220 253 6,900  Level Atlanta TRACON
12:03PM 33.2767 -83.9717 204° Southwest 217 250 6,900  Level Atlanta Center
12:04PM 33.2203 -84.0017 204° Southwest 217 250 6,900  Level Atlanta Center
12:05PM 33.1575 -84.0314 202° Southwest 229 264 6,900 240 Level Atlanta Center
12:06PM 33.1056 -84.0586 204° Southwest 224 258 7,400 720 Climbing Atlanta Center
12:07PM 33.0594 -84.0736 195° South 204 235 8,400 960 Climbing Atlanta Center
12:08PM 33.0156 -84.1008 207° Southwest 194 223 9,400 1,140 Climbing Atlanta Center
12:09PM 32.9739 -84.1356 215° Southwest 188 216 10,700 1,200 Climbing Atlanta Center
12:10PM 32.9342 -84.1575 205° Southwest 182 209 11,900 1,020 Climbing Atlanta Center
12:11PM 32.8925 -84.1872 211° Southwest 175 201 12,800 900 Climbing Atlanta Center
12:12PM 32.8506 -84.2194 213° Southwest 175 201 13,700 660 Climbing Atlanta Center
12:13PM 32.8108 -84.2464 210° Southwest 175 201 14,200 840 Climbing Atlanta Center
12:14PM 32.7669 -84.2661 201° Southwest 175 201 15,400 960 Climbing Atlanta Center
12:15PM 32.7231 -84.2931 207° Southwest 175 201 16,200 900 Climbing Atlanta Center
12:16PM 32.6814 -84.3203 209° Southwest 175 201 17,200 840 Climbing Atlanta Center
12:17PM 32.6417 -84.3472 210° Southwest 175 201 17,900 840 Climbing Atlanta Center
12:18PM 32.5997 -84.3767 211° Southwest 175 201 18,900 900 Climbing Atlanta Center
12:19PM 32.5600 -84.4036 210° Southwest 170 196 19,800 480 Climbing Atlanta Center
12:20PM 32.5161 -84.4331 209° Southwest 170 196 19,900  Climbing Atlanta Center
12:21PM 32.4744 -84.4600 209° Southwest 170 196 19,900  Level Atlanta Center
12:22PM 32.4219 -84.4892 205° Southwest 180 207 19,900  Level Atlanta Center
12:23PM 32.3761 -84.5208 210° Southwest 188 216 19,900  Level Atlanta Center
12:26PM 32.2575 -84.5950 208° Southwest 195 224 19,900  Level Jacksonville Center
12:27PM 32.2089 -84.6261 208° Southwest 200 230 19,900  Level Jacksonville Center
12:28PM 32.1606 -84.6569 208° Southwest 200 230 19,900  Level Jacksonville Center
12:29PM 32.1142 -84.6881 210° Southwest 200 230 19,900  Level Jacksonville Center
12:30PM 32.0636 -84.7189 207° Southwest 206 237 19,900  Level Jacksonville Center
12:31PM 32.0172 -84.7500 210° Southwest 201 231 19,900  Level Jacksonville Center
12:32PM 31.9728 -84.7808 210° Southwest 201 231 19,900  Level Jacksonville Center
12:33PM 31.9222 -84.8117 207° Southwest 201 231 19,900  Level Jacksonville Center
12:34PM 31.8739 -84.8400 206° Southwest 206 237 19,900  Level Jacksonville Center
12:35PM 31.8233 -84.8731 209° Southwest 206 237 19,900  Level Jacksonville Center
12:36PM 31.7769 -84.9039 209° Southwest 206 237 19,900  Level Jacksonville Center
12:37PM 31.7283 -84.9344 208° Southwest 206 237 19,900 -660 Level Jacksonville Center
12:38PM 31.6756 -84.9700 210° Southwest 206 237 18,600 -1,140 Descending Jacksonville Center
12:39PM 31.6206 -85.0078 210° Southwest 219 252 17,700 -720 Descending Jacksonville Center
12:40PM 31.5617 -85.0431 207° Southwest 230 265 17,200 -600 Descending Jacksonville Center
12:41PM 31.5067 -85.0783 209° Southwest 230 265 16,600 -720 Descending Jacksonville Center
12:42PM 31.4519 -85.1136 209° Southwest 230 265 15,800 -780 Descending Jacksonville Center
12:43PM 31.3928 -85.1536 210° Southwest 235 270 15,100 -960 Descending Jacksonville Center
12:43PM 31.3631 -85.1722 208° Southwest 235 270 14,300 -1,200 Descending Jacksonville Center
12:44PM 31.3356 -85.1936 214° Southwest 235 270 13,900 -900 Descending Jacksonville Center
12:44PM 31.3208 -85.2028 208° Southwest 240 276 13,700 -900 Descending Jacksonville Center
12:45PM 31.2828 -85.2239 205° Southwest 235 270 13,000 -1,200 Descending Jacksonville Center
12:45PM 31.2681 -85.2331 208° Southwest 238 274 12,600 -1,320 Descending Jacksonville Center
12:46PM 31.2236 -85.2589 206° Southwest 240 276 11,700 -1,380 Descending Jacksonville Center
12:46PM 31.2047 -85.2706 208° Southwest 244 281 11,200 -1,140 Descending Jacksonville Center
12:47PM 31.1667 -85.2986 212° Southwest 245 282 10,600 -1,200 Descending Jacksonville Center
12:47PM 31.1497 -85.3081 206° Southwest 240 276 10,000 -1,500 Descending Jacksonville Center
12:48PM 31.1033 -85.3333 205° Southwest 251 289 9,100 -1,320 Descending Jacksonville Center
12:48PM 31.0864 -85.3475 216° Southwest 242 278 8,700 -1,140 Descending Jacksonville Center
12:49PM 31.0422 -85.3681 202° Southwest 251 289 8,000 -480 Descending Jacksonville Center
12:50PM 30.9850 -85.4031 208° Southwest 245 282 7,900 -180 Descending Jacksonville Center
12:51PM 30.9322 -85.4356 208° Southwest 234 269 7,700 -600 Descending Jacksonville Center
12:52PM 30.8753 -85.4678 206° Southwest 229 264 6,800 -900 Descending Jacksonville Center
12:53PM 30.8158 -85.5072 210° Southwest 229 264 6,000 -840 Descending Jacksonville Center
12:55PM 30.7328 -85.5505 221° Southwest  Level FlightAware Approximate
01:02PM 30.3940 -85.7614 203° Southwest  Level FlightAware Approximate
01:03PM 30.3500 -85.7833 203° Southwest  Level FlightAware Approximate
01:04PM 30.3582 -85.7956 203° Southwest  Level Estimated
01:05PM 30.3582 -85.7956 203° Southwest  Level Estimated
01:06PM 30.3582 -85.7956 203° Southwest  Level Estimated
01:07PM 30.3582 -85.7956 203° Southwest  Level Estimated
01:08PM 30.3582 -85.7956 203° Southwest  Level Estimated
01:09PM 30.3582 -85.7956 203° Southwest  Level Estimated
01:10PM 30.3582 -85.7956 203° Southwest  Level Estimated
01:11PM 30.3582 -85.7956 203° Southwest  Level Estimated